sensor_id;sensor_type;location;lat;lon;timestamp;P1;durP1;ratioP1;P2;durP2;ratioP2
17482;SDS011;8858;52.308;20.994;2023-12-07T00:01:39;39.03;;;24.23;;
17482;SDS011;8858;52.308;20.994;2023-12-07T00:04:09;39.90;;;25.87;;
17482;SDS011;8858;52.308;20.994;2023-12-07T00:06:37;40.87;;;24.93;;
17482;SDS011;8858;52.308;20.994;2023-12-07T00:09:05;38.70;;;24.87;;
17482;SDS011;8858;52.308;20.994;2023-12-07T00:11:33;41.57;;;25.90;;
17482;SDS011;8858;52.308;20.994;2023-12-07T00:14:02;44.37;;;26.20;;
17482;SDS011;8858;52.308;20.994;2023-12-07T00:16:30;41.67;;;24.40;;
17482;SDS011;8858;52.308;20.994;2023-12-07T00:18:59;45.77;;;25.57;;
17482;SDS011;8858;52.308;20.994;2023-12-07T00:21:28;41.30;;;24.90;;
17482;SDS011;8858;52.308;20.994;2023-12-07T00:23:56;41.53;;;24.60;;
17482;SDS011;8858;52.308;20.994;2023-12-07T00:26:25;42.33;;;25.07;;
17482;SDS011;8858;52.308;20.994;2023-12-07T00:28:56;44.70;;;26.57;;
17482;SDS011;8858;52.308;20.994;2023-12-07T00:31:26;46.03;;;26.50;;
17482;SDS011;8858;52.308;20.994;2023-12-07T00:33:54;43.43;;;25.10;;
17482;SDS011;8858;52.308;20.994;2023-12-07T00:36:24;42.73;;;24.57;;
17482;SDS011;8858;52.308;20.994;2023-12-07T00:38:53;46.00;;;25.73;;
17482;SDS011;8858;52.308;20.994;2023-12-07T00:41:24;42.20;;;24.43;;
17482;SDS011;8858;52.308;20.994;2023-12-07T00:43:54;41.33;;;24.77;;
17482;SDS011;8858;52.308;20.994;2023-12-07T00:46:23;45.80;;;24.87;;
17482;SDS011;8858;52.308;20.994;2023-12-07T00:48:52;41.93;;;23.90;;
17482;SDS011;8858;52.308;20.994;2023-12-07T00:51:20;39.80;;;24.13;;
17482;SDS011;8858;52.308;20.994;2023-12-07T00:53:51;46.37;;;24.53;;
17482;SDS011;8858;52.308;20.994;2023-12-07T00:56:24;44.47;;;24.90;;
17482;SDS011;8858;52.308;20.994;2023-12-07T00:58:53;43.90;;;25.57;;
17482;SDS011;8858;52.308;20.994;2023-12-07T01:01:22;48.17;;;26.47;;
17482;SDS011;8858;52.308;20.994;2023-12-07T01:03:50;47.67;;;26.43;;
17482;SDS011;8858;52.308;20.994;2023-12-07T01:06:19;43.73;;;25.53;;
17482;SDS011;8858;52.308;20.994;2023-12-07T01:08:51;49.20;;;25.90;;
17482;SDS011;8858;52.308;20.994;2023-12-07T01:11:20;49.17;;;26.27;;
17482;SDS011;8858;52.308;20.994;2023-12-07T01:13:49;49.03;;;25.67;;
17482;SDS011;8858;52.308;20.994;2023-12-07T01:16:17;44.60;;;23.37;;
17482;SDS011;8858;52.308;20.994;2023-12-07T01:19:10;48.13;;;25.37;;
17482;SDS011;8858;52.308;20.994;2023-12-07T01:21:44;49.23;;;25.57;;
17482;SDS011;8858;52.308;20.994;2023-12-07T01:24:15;50.50;;;25.37;;
17482;SDS011;8858;52.308;20.994;2023-12-07T01:26:45;45.80;;;24.53;;
17482;SDS011;8858;52.308;20.994;2023-12-07T01:29:15;46.23;;;24.40;;
17482;SDS011;8858;52.308;20.994;2023-12-07T01:31:45;48.57;;;24.03;;
17482;SDS011;8858;52.308;20.994;2023-12-07T01:34:14;49.87;;;25.27;;
17482;SDS011;8858;52.308;20.994;2023-12-07T01:36:45;42.93;;;23.80;;
17482;SDS011;8858;52.308;20.994;2023-12-07T01:39:13;48.27;;;24.17;;
17482;SDS011;8858;52.308;20.994;2023-12-07T01:41:43;48.20;;;26.30;;
17482;SDS011;8858;52.308;20.994;2023-12-07T01:44:12;46.47;;;24.93;;
17482;SDS011;8858;52.308;20.994;2023-12-07T01:46:41;50.23;;;25.90;;
17482;SDS011;8858;52.308;20.994;2023-12-07T01:49:11;45.70;;;25.47;;
17482;SDS011;8858;52.308;20.994;2023-12-07T01:51:40;43.60;;;25.10;;
17482;SDS011;8858;52.308;20.994;2023-12-07T01:54:08;43.10;;;25.20;;
17482;SDS011;8858;52.308;20.994;2023-12-07T01:56:36;46.60;;;24.60;;
17482;SDS011;8858;52.308;20.994;2023-12-07T01:59:05;43.00;;;23.53;;
17482;SDS011;8858;52.308;20.994;2023-12-07T02:01:39;46.10;;;24.93;;
17482;SDS011;8858;52.308;20.994;2023-12-07T02:04:11;46.60;;;24.57;;
17482;SDS011;8858;52.308;20.994;2023-12-07T02:06:46;44.23;;;23.80;;
17482;SDS011;8858;52.308;20.994;2023-12-07T02:09:15;44.60;;;24.70;;
17482;SDS011;8858;52.308;20.994;2023-12-07T02:11:44;41.63;;;23.90;;
17482;SDS011;8858;52.308;20.994;2023-12-07T02:15:01;46.17;;;24.73;;
17482;SDS011;8858;52.308;20.994;2023-12-07T02:17:33;46.93;;;25.07;;
17482;SDS011;8858;52.308;20.994;2023-12-07T02:20:08;45.13;;;25.57;;
17482;SDS011;8858;52.308;20.994;2023-12-07T02:22:46;48.47;;;24.83;;
17482;SDS011;8858;52.308;20.994;2023-12-07T02:25:18;45.07;;;24.53;;
17482;SDS011;8858;52.308;20.994;2023-12-07T02:28:00;46.17;;;24.60;;
17482;SDS011;8858;52.308;20.994;2023-12-07T02:30:29;43.90;;;23.00;;
17482;SDS011;8858;52.308;20.994;2023-12-07T02:32:58;40.87;;;23.50;;
17482;SDS011;8858;52.308;20.994;2023-12-07T02:35:28;47.00;;;25.20;;
17482;SDS011;8858;52.308;20.994;2023-12-07T02:37:58;44.03;;;22.97;;
17482;SDS011;8858;52.308;20.994;2023-12-07T02:40:28;46.00;;;24.50;;
17482;SDS011;8858;52.308;20.994;2023-12-07T02:42:58;41.43;;;23.67;;
17482;SDS011;8858;52.308;20.994;2023-12-07T02:45:33;44.03;;;23.77;;
17482;SDS011;8858;52.308;20.994;2023-12-07T02:48:04;43.67;;;24.37;;
17482;SDS011;8858;52.308;20.994;2023-12-07T02:50:32;47.77;;;24.70;;
17482;SDS011;8858;52.308;20.994;2023-12-07T02:53:04;43.93;;;23.63;;
17482;SDS011;8858;52.308;20.994;2023-12-07T02:55:32;42.10;;;23.07;;
17482;SDS011;8858;52.308;20.994;2023-12-07T02:58:04;41.87;;;23.00;;
17482;SDS011;8858;52.308;20.994;2023-12-07T03:00:34;46.43;;;23.47;;
17482;SDS011;8858;52.308;20.994;2023-12-07T03:03:02;45.67;;;23.30;;
17482;SDS011;8858;52.308;20.994;2023-12-07T03:05:30;41.87;;;23.40;;
17482;SDS011;8858;52.308;20.994;2023-12-07T03:07:59;46.33;;;24.17;;
17482;SDS011;8858;52.308;20.994;2023-12-07T03:10:31;42.47;;;24.13;;
17482;SDS011;8858;52.308;20.994;2023-12-07T03:13:00;43.40;;;22.40;;
17482;SDS011;8858;52.308;20.994;2023-12-07T03:15:29;40.87;;;22.47;;
17482;SDS011;8858;52.308;20.994;2023-12-07T03:17:58;40.27;;;22.87;;
17482;SDS011;8858;52.308;20.994;2023-12-07T03:20:27;46.13;;;22.87;;
17482;SDS011;8858;52.308;20.994;2023-12-07T03:22:59;47.70;;;23.10;;
17482;SDS011;8858;52.308;20.994;2023-12-07T03:25:27;44.10;;;23.40;;
17482;SDS011;8858;52.308;20.994;2023-12-07T03:27:55;43.07;;;23.00;;
17482;SDS011;8858;52.308;20.994;2023-12-07T03:30:26;43.23;;;23.23;;
17482;SDS011;8858;52.308;20.994;2023-12-07T03:32:58;42.63;;;22.90;;
17482;SDS011;8858;52.308;20.994;2023-12-07T03:35:28;40.27;;;22.07;;
17482;SDS011;8858;52.308;20.994;2023-12-07T03:37:57;42.13;;;23.37;;
17482;SDS011;8858;52.308;20.994;2023-12-07T03:40:26;42.73;;;22.00;;
17482;SDS011;8858;52.308;20.994;2023-12-07T03:42:56;45.27;;;23.23;;
17482;SDS011;8858;52.308;20.994;2023-12-07T03:45:25;43.20;;;22.13;;
17482;SDS011;8858;52.308;20.994;2023-12-07T03:47:59;43.60;;;21.87;;
17482;SDS011;8858;52.308;20.994;2023-12-07T03:50:27;43.93;;;22.60;;
17482;SDS011;8858;52.308;20.994;2023-12-07T03:52:56;43.03;;;22.83;;
17482;SDS011;8858;52.308;20.994;2023-12-07T03:55:24;38.50;;;21.53;;
17482;SDS011;8858;52.308;20.994;2023-12-07T03:57:53;45.27;;;22.53;;
17482;SDS011;8858;52.308;20.994;2023-12-07T04:00:22;40.03;;;21.80;;
17482;SDS011;8858;52.308;20.994;2023-12-07T04:02:51;42.93;;;23.57;;
17482;SDS011;8858;52.308;20.994;2023-12-07T04:05:21;43.33;;;22.57;;
17482;SDS011;8858;52.308;20.994;2023-12-07T04:07:50;47.10;;;23.23;;
17482;SDS011;8858;52.308;20.994;2023-12-07T04:10:19;42.83;;;22.20;;
17482;SDS011;8858;52.308;20.994;2023-12-07T04:12:48;40.23;;;22.77;;
17482;SDS011;8858;52.308;20.994;2023-12-07T04:15:20;37.87;;;21.07;;
17482;SDS011;8858;52.308;20.994;2023-12-07T04:17:49;45.37;;;23.40;;
17482;SDS011;8858;52.308;20.994;2023-12-07T04:20:22;43.87;;;22.23;;
17482;SDS011;8858;52.308;20.994;2023-12-07T04:22:50;39.50;;;21.60;;
17482;SDS011;8858;52.308;20.994;2023-12-07T04:25:20;40.27;;;20.47;;
17482;SDS011;8858;52.308;20.994;2023-12-07T04:27:49;40.63;;;21.23;;
17482;SDS011;8858;52.308;20.994;2023-12-07T04:30:18;38.87;;;20.90;;
17482;SDS011;8858;52.308;20.994;2023-12-07T04:32:47;42.93;;;21.97;;
17482;SDS011;8858;52.308;20.994;2023-12-07T04:35:17;37.97;;;20.90;;
17482;SDS011;8858;52.308;20.994;2023-12-07T04:37:50;38.23;;;20.37;;
17482;SDS011;8858;52.308;20.994;2023-12-07T04:40:19;38.83;;;21.27;;
17482;SDS011;8858;52.308;20.994;2023-12-07T04:42:48;37.83;;;20.50;;
17482;SDS011;8858;52.308;20.994;2023-12-07T04:45:16;42.30;;;21.03;;
17482;SDS011;8858;52.308;20.994;2023-12-07T04:47:44;42.97;;;22.03;;
17482;SDS011;8858;52.308;20.994;2023-12-07T04:50:17;42.13;;;20.57;;
17482;SDS011;8858;52.308;20.994;2023-12-07T04:52:47;42.07;;;22.90;;
17482;SDS011;8858;52.308;20.994;2023-12-07T04:55:16;42.87;;;22.40;;
17482;SDS011;8858;52.308;20.994;2023-12-07T04:57:45;36.40;;;20.20;;
17482;SDS011;8858;52.308;20.994;2023-12-07T05:00:14;39.20;;;20.57;;
17482;SDS011;8858;52.308;20.994;2023-12-07T05:02:43;39.47;;;21.40;;
17482;SDS011;8858;52.308;20.994;2023-12-07T05:05:11;42.00;;;21.33;;
17482;SDS011;8858;52.308;20.994;2023-12-07T05:07:40;39.07;;;20.63;;
17482;SDS011;8858;52.308;20.994;2023-12-07T05:10:12;38.30;;;21.73;;
17482;SDS011;8858;52.308;20.994;2023-12-07T05:12:42;38.13;;;20.57;;
17482;SDS011;8858;52.308;20.994;2023-12-07T05:15:13;38.33;;;22.00;;
17482;SDS011;8858;52.308;20.994;2023-12-07T05:17:42;40.70;;;21.60;;
17482;SDS011;8858;52.308;20.994;2023-12-07T05:20:11;35.53;;;20.00;;
17482;SDS011;8858;52.308;20.994;2023-12-07T05:22:40;38.30;;;21.17;;
17482;SDS011;8858;52.308;20.994;2023-12-07T05:25:09;35.33;;;20.70;;
17482;SDS011;8858;52.308;20.994;2023-12-07T05:27:37;36.43;;;20.47;;
17482;SDS011;8858;52.308;20.994;2023-12-07T05:30:08;41.20;;;20.87;;
17482;SDS011;8858;52.308;20.994;2023-12-07T05:32:38;39.17;;;22.07;;
17482;SDS011;8858;52.308;20.994;2023-12-07T05:35:07;36.97;;;20.53;;
17482;SDS011;8858;52.308;20.994;2023-12-07T05:37:36;36.10;;;20.03;;
17482;SDS011;8858;52.308;20.994;2023-12-07T05:40:09;38.60;;;20.60;;
17482;SDS011;8858;52.308;20.994;2023-12-07T05:42:39;36.67;;;20.50;;
17482;SDS011;8858;52.308;20.994;2023-12-07T05:45:09;36.00;;;20.57;;
17482;SDS011;8858;52.308;20.994;2023-12-07T05:47:37;35.80;;;20.50;;
17482;SDS011;8858;52.308;20.994;2023-12-07T05:50:06;37.87;;;21.43;;
17482;SDS011;8858;52.308;20.994;2023-12-07T05:52:36;37.57;;;20.00;;
17482;SDS011;8858;52.308;20.994;2023-12-07T05:55:05;37.77;;;21.43;;
17482;SDS011;8858;52.308;20.994;2023-12-07T05:57:36;34.67;;;20.67;;
17482;SDS011;8858;52.308;20.994;2023-12-07T06:00:06;32.77;;;20.43;;
17482;SDS011;8858;52.308;20.994;2023-12-07T06:02:40;38.47;;;21.00;;
17482;SDS011;8858;52.308;20.994;2023-12-07T06:05:10;35.17;;;20.50;;
17482;SDS011;8858;52.308;20.994;2023-12-07T06:07:38;37.93;;;21.70;;
17482;SDS011;8858;52.308;20.994;2023-12-07T06:10:09;41.60;;;21.60;;
17482;SDS011;8858;52.308;20.994;2023-12-07T06:12:37;39.33;;;21.27;;
17482;SDS011;8858;52.308;20.994;2023-12-07T06:15:06;40.63;;;21.93;;
17482;SDS011;8858;52.308;20.994;2023-12-07T06:17:39;39.63;;;21.97;;
17482;SDS011;8858;52.308;20.994;2023-12-07T06:20:09;35.70;;;21.33;;
17482;SDS011;8858;52.308;20.994;2023-12-07T06:22:38;36.03;;;22.13;;
17482;SDS011;8858;52.308;20.994;2023-12-07T06:25:08;34.30;;;20.97;;
17482;SDS011;8858;52.308;20.994;2023-12-07T06:27:38;34.57;;;20.77;;
17482;SDS011;8858;52.308;20.994;2023-12-07T06:30:08;33.60;;;20.50;;
17482;SDS011;8858;52.308;20.994;2023-12-07T06:32:39;35.33;;;20.77;;
17482;SDS011;8858;52.308;20.994;2023-12-07T06:35:09;34.57;;;20.43;;
17482;SDS011;8858;52.308;20.994;2023-12-07T06:37:39;34.50;;;20.43;;
17482;SDS011;8858;52.308;20.994;2023-12-07T06:40:09;31.37;;;20.30;;
17482;SDS011;8858;52.308;20.994;2023-12-07T06:42:37;33.43;;;21.10;;
17482;SDS011;8858;52.308;20.994;2023-12-07T06:45:06;32.40;;;20.23;;
17482;SDS011;8858;52.308;20.994;2023-12-07T06:47:40;33.97;;;19.73;;
17482;SDS011;8858;52.308;20.994;2023-12-07T06:50:09;31.80;;;20.50;;
17482;SDS011;8858;52.308;20.994;2023-12-07T06:52:38;32.30;;;20.43;;
17482;SDS011;8858;52.308;20.994;2023-12-07T06:55:07;34.17;;;19.50;;
17482;SDS011;8858;52.308;20.994;2023-12-07T06:57:38;28.50;;;18.03;;
17482;SDS011;8858;52.308;20.994;2023-12-07T07:00:07;34.23;;;19.67;;
17482;SDS011;8858;52.308;20.994;2023-12-07T07:02:37;29.33;;;19.43;;
17482;SDS011;8858;52.308;20.994;2023-12-07T07:05:07;30.20;;;19.13;;
17482;SDS011;8858;52.308;20.994;2023-12-07T07:07:38;28.47;;;18.60;;
17482;SDS011;8858;52.308;20.994;2023-12-07T07:10:07;36.43;;;19.97;;
17482;SDS011;8858;52.308;20.994;2023-12-07T07:12:39;33.10;;;20.03;;
17482;SDS011;8858;52.308;20.994;2023-12-07T07:15:08;33.30;;;20.77;;
17482;SDS011;8858;52.308;20.994;2023-12-07T07:17:40;35.50;;;20.37;;
17482;SDS011;8858;52.308;20.994;2023-12-07T07:20:09;34.50;;;20.47;;
17482;SDS011;8858;52.308;20.994;2023-12-07T07:22:38;34.27;;;20.40;;
17482;SDS011;8858;52.308;20.994;2023-12-07T07:25:08;34.07;;;20.30;;
17482;SDS011;8858;52.308;20.994;2023-12-07T07:27:36;32.13;;;20.87;;
17482;SDS011;8858;52.308;20.994;2023-12-07T07:30:09;37.23;;;21.43;;
17482;SDS011;8858;52.308;20.994;2023-12-07T07:32:38;34.17;;;20.20;;
17482;SDS011;8858;52.308;20.994;2023-12-07T07:35:07;36.73;;;21.13;;
17482;SDS011;8858;52.308;20.994;2023-12-07T07:37:38;35.63;;;20.73;;
17482;SDS011;8858;52.308;20.994;2023-12-07T07:40:10;32.43;;;20.67;;
17482;SDS011;8858;52.308;20.994;2023-12-07T07:42:39;34.23;;;21.07;;
17482;SDS011;8858;52.308;20.994;2023-12-07T07:45:08;33.30;;;20.50;;
17482;SDS011;8858;52.308;20.994;2023-12-07T07:47:37;33.30;;;21.40;;
17482;SDS011;8858;52.308;20.994;2023-12-07T07:50:05;33.40;;;20.50;;
17482;SDS011;8858;52.308;20.994;2023-12-07T07:52:37;32.93;;;21.20;;
17482;SDS011;8858;52.308;20.994;2023-12-07T07:55:07;36.43;;;22.07;;
17482;SDS011;8858;52.308;20.994;2023-12-07T07:57:37;34.37;;;21.23;;
17482;SDS011;8858;52.308;20.994;2023-12-07T08:00:06;32.93;;;21.23;;
17482;SDS011;8858;52.308;20.994;2023-12-07T08:02:35;32.70;;;19.90;;
17482;SDS011;8858;52.308;20.994;2023-12-07T08:05:04;33.90;;;21.73;;
17482;SDS011;8858;52.308;20.994;2023-12-07T08:07:34;33.50;;;22.17;;
17482;SDS011;8858;52.308;20.994;2023-12-07T08:10:02;34.53;;;22.87;;
17482;SDS011;8858;52.308;20.994;2023-12-07T08:12:31;35.53;;;22.60;;
17482;SDS011;8858;52.308;20.994;2023-12-07T08:15:00;38.40;;;24.13;;
17482;SDS011;8858;52.308;20.994;2023-12-07T08:17:28;35.67;;;23.00;;
17482;SDS011;8858;52.308;20.994;2023-12-07T08:19:59;34.37;;;21.77;;
17482;SDS011;8858;52.308;20.994;2023-12-07T08:22:28;34.40;;;22.47;;
17482;SDS011;8858;52.308;20.994;2023-12-07T08:24:58;35.63;;;21.73;;
17482;SDS011;8858;52.308;20.994;2023-12-07T08:27:36;34.93;;;22.87;;
17482;SDS011;8858;52.308;20.994;2023-12-07T08:30:05;38.10;;;22.57;;
17482;SDS011;8858;52.308;20.994;2023-12-07T08:32:36;37.23;;;22.27;;
17482;SDS011;8858;52.308;20.994;2023-12-07T08:35:05;36.17;;;23.33;;
17482;SDS011;8858;52.308;20.994;2023-12-07T08:37:36;37.10;;;23.33;;
17482;SDS011;8858;52.308;20.994;2023-12-07T08:40:07;34.73;;;22.63;;
17482;SDS011;8858;52.308;20.994;2023-12-07T08:42:38;32.80;;;22.73;;
17482;SDS011;8858;52.308;20.994;2023-12-07T08:45:06;37.03;;;23.80;;
17482;SDS011;8858;52.308;20.994;2023-12-07T08:47:35;36.40;;;23.17;;
17482;SDS011;8858;52.308;20.994;2023-12-07T08:50:04;35.63;;;23.07;;
17482;SDS011;8858;52.308;20.994;2023-12-07T08:52:35;35.33;;;23.27;;
17482;SDS011;8858;52.308;20.994;2023-12-07T08:55:14;39.13;;;23.70;;
17482;SDS011;8858;52.308;20.994;2023-12-07T08:57:43;38.80;;;24.20;;
17482;SDS011;8858;52.308;20.994;2023-12-07T09:00:12;37.30;;;23.63;;
17482;SDS011;8858;52.308;20.994;2023-12-07T09:02:41;37.70;;;24.73;;
17482;SDS011;8858;52.308;20.994;2023-12-07T09:05:13;35.97;;;24.23;;
17482;SDS011;8858;52.308;20.994;2023-12-07T09:07:42;33.70;;;23.13;;
17482;SDS011;8858;52.308;20.994;2023-12-07T09:10:10;39.37;;;24.23;;
17482;SDS011;8858;52.308;20.994;2023-12-07T09:12:41;37.23;;;23.90;;
17482;SDS011;8858;52.308;20.994;2023-12-07T09:15:10;33.13;;;23.23;;
17482;SDS011;8858;52.308;20.994;2023-12-07T09:17:39;46.10;;;30.57;;
17482;SDS011;8858;52.308;20.994;2023-12-07T09:20:08;68.17;;;42.10;;
17482;SDS011;8858;52.308;20.994;2023-12-07T09:22:42;41.27;;;26.87;;
17482;SDS011;8858;52.308;20.994;2023-12-07T09:25:15;33.10;;;22.83;;
17482;SDS011;8858;52.308;20.994;2023-12-07T09:27:45;36.13;;;24.07;;
17482;SDS011;8858;52.308;20.994;2023-12-07T09:30:18;34.47;;;24.13;;
17482;SDS011;8858;52.308;20.994;2023-12-07T09:32:47;32.53;;;22.97;;
17482;SDS011;8858;52.308;20.994;2023-12-07T09:35:15;34.33;;;23.30;;
17482;SDS011;8858;52.308;20.994;2023-12-07T09:37:47;37.57;;;25.47;;
17482;SDS011;8858;52.308;20.994;2023-12-07T09:40:17;34.40;;;23.87;;
17482;SDS011;8858;52.308;20.994;2023-12-07T09:42:52;38.67;;;24.97;;
17482;SDS011;8858;52.308;20.994;2023-12-07T09:45:21;37.20;;;24.77;;
17482;SDS011;8858;52.308;20.994;2023-12-07T09:47:56;38.60;;;25.83;;
17482;SDS011;8858;52.308;20.994;2023-12-07T09:50:25;38.50;;;24.73;;
17482;SDS011;8858;52.308;20.994;2023-12-07T09:52:55;38.77;;;25.13;;
17482;SDS011;8858;52.308;20.994;2023-12-07T09:55:34;38.73;;;25.33;;
17482;SDS011;8858;52.308;20.994;2023-12-07T09:58:06;36.80;;;25.53;;
17482;SDS011;8858;52.308;20.994;2023-12-07T10:00:35;36.73;;;25.17;;
17482;SDS011;8858;52.308;20.994;2023-12-07T10:03:05;36.37;;;25.00;;
17482;SDS011;8858;52.308;20.994;2023-12-07T10:08:27;38.27;;;24.83;;
17482;SDS011;8858;52.308;20.994;2023-12-07T10:11:06;37.93;;;26.10;;
17482;SDS011;8858;52.308;20.994;2023-12-07T10:13:39;37.77;;;24.60;;
17482;SDS011;8858;52.308;20.994;2023-12-07T10:16:09;37.57;;;25.37;;
17482;SDS011;8858;52.308;20.994;2023-12-07T10:18:42;38.77;;;25.27;;
17482;SDS011;8858;52.308;20.994;2023-12-07T10:21:11;37.50;;;25.70;;
17482;SDS011;8858;52.308;20.994;2023-12-07T10:23:41;37.30;;;25.40;;
17482;SDS011;8858;52.308;20.994;2023-12-07T10:26:16;35.13;;;25.13;;
17482;SDS011;8858;52.308;20.994;2023-12-07T10:28:51;85.87;;;55.60;;
17482;SDS011;8858;52.308;20.994;2023-12-07T10:31:23;53.87;;;35.80;;
17482;SDS011;8858;52.308;20.994;2023-12-07T10:33:51;37.33;;;25.37;;
17482;SDS011;8858;52.308;20.994;2023-12-07T10:36:22;35.40;;;24.20;;
17482;SDS011;8858;52.308;20.994;2023-12-07T10:38:51;37.50;;;24.17;;
17482;SDS011;8858;52.308;20.994;2023-12-07T10:41:20;35.60;;;24.40;;
17482;SDS011;8858;52.308;20.994;2023-12-07T10:43:53;34.77;;;24.30;;
17482;SDS011;8858;52.308;20.994;2023-12-07T10:46:25;35.70;;;24.87;;
17482;SDS011;8858;52.308;20.994;2023-12-07T10:48:54;35.33;;;23.57;;
17482;SDS011;8858;52.308;20.994;2023-12-07T10:51:29;35.57;;;24.20;;
17482;SDS011;8858;52.308;20.994;2023-12-07T10:54:07;34.67;;;24.53;;
17482;SDS011;8858;52.308;20.994;2023-12-07T10:56:39;31.53;;;23.60;;
17482;SDS011;8858;52.308;20.994;2023-12-07T10:59:12;38.37;;;24.83;;
17482;SDS011;8858;52.308;20.994;2023-12-07T11:01:56;34.93;;;24.50;;
17482;SDS011;8858;52.308;20.994;2023-12-07T11:04:26;35.07;;;24.53;;
17482;SDS011;8858;52.308;20.994;2023-12-07T11:06:57;34.57;;;25.07;;
17482;SDS011;8858;52.308;20.994;2023-12-07T11:09:35;34.50;;;24.73;;
17482;SDS011;8858;52.308;20.994;2023-12-07T11:12:21;33.83;;;23.73;;
17482;SDS011;8858;52.308;20.994;2023-12-07T11:14:57;63.67;;;40.87;;
17482;SDS011;8858;52.308;20.994;2023-12-07T11:17:26;64.83;;;42.17;;
17482;SDS011;8858;52.308;20.994;2023-12-07T11:19:55;44.93;;;29.93;;
17482;SDS011;8858;52.308;20.994;2023-12-07T11:22:24;37.17;;;23.80;;
17482;SDS011;8858;52.308;20.994;2023-12-07T11:24:57;35.10;;;24.97;;
17482;SDS011;8858;52.308;20.994;2023-12-07T11:27:31;35.97;;;25.83;;
17482;SDS011;8858;52.308;20.994;2023-12-07T11:30:01;34.47;;;26.07;;
17482;SDS011;8858;52.308;20.994;2023-12-07T11:32:30;36.87;;;26.87;;
17482;SDS011;8858;52.308;20.994;2023-12-07T11:35:02;36.47;;;26.43;;
17482;SDS011;8858;52.308;20.994;2023-12-07T11:40:29;39.03;;;26.33;;
17482;SDS011;8858;52.308;20.994;2023-12-07T11:42:59;39.20;;;26.63;;
17482;SDS011;8858;52.308;20.994;2023-12-07T11:45:46;39.67;;;26.37;;
17482;SDS011;8858;52.308;20.994;2023-12-07T11:48:16;37.23;;;26.93;;
17482;SDS011;8858;52.308;20.994;2023-12-07T11:50:55;34.67;;;25.57;;
17482;SDS011;8858;52.308;20.994;2023-12-07T11:53:25;34.40;;;25.60;;
17482;SDS011;8858;52.308;20.994;2023-12-07T11:55:57;37.30;;;25.97;;
17482;SDS011;8858;52.308;20.994;2023-12-07T11:58:26;38.37;;;26.53;;
17482;SDS011;8858;52.308;20.994;2023-12-07T12:00:59;36.37;;;26.40;;
17482;SDS011;8858;52.308;20.994;2023-12-07T12:03:30;37.80;;;26.57;;
17482;SDS011;8858;52.308;20.994;2023-12-07T12:06:03;35.80;;;25.97;;
17482;SDS011;8858;52.308;20.994;2023-12-07T12:08:36;37.00;;;26.77;;
17482;SDS011;8858;52.308;20.994;2023-12-07T12:11:09;38.40;;;27.53;;
17482;SDS011;8858;52.308;20.994;2023-12-07T12:13:38;36.60;;;25.27;;
17482;SDS011;8858;52.308;20.994;2023-12-07T12:16:09;35.33;;;25.93;;
17482;SDS011;8858;52.308;20.994;2023-12-07T12:18:39;35.80;;;26.00;;
17482;SDS011;8858;52.308;20.994;2023-12-07T12:21:07;37.67;;;27.67;;
17482;SDS011;8858;52.308;20.994;2023-12-07T12:23:36;36.13;;;25.63;;
17482;SDS011;8858;52.308;20.994;2023-12-07T12:26:07;37.40;;;27.53;;
17482;SDS011;8858;52.308;20.994;2023-12-07T12:28:37;34.83;;;26.77;;
17482;SDS011;8858;52.308;20.994;2023-12-07T12:31:13;38.33;;;27.13;;
17482;SDS011;8858;52.308;20.994;2023-12-07T12:33:44;35.00;;;26.03;;
17482;SDS011;8858;52.308;20.994;2023-12-07T12:36:14;35.70;;;26.50;;
17482;SDS011;8858;52.308;20.994;2023-12-07T12:38:46;38.33;;;27.97;;
17482;SDS011;8858;52.308;20.994;2023-12-07T12:41:18;38.67;;;27.60;;
17482;SDS011;8858;52.308;20.994;2023-12-07T12:43:47;36.83;;;27.80;;
17482;SDS011;8858;52.308;20.994;2023-12-07T12:46:18;36.93;;;27.13;;
17482;SDS011;8858;52.308;20.994;2023-12-07T12:48:53;37.27;;;26.87;;
17482;SDS011;8858;52.308;20.994;2023-12-07T12:51:24;37.50;;;26.73;;
17482;SDS011;8858;52.308;20.994;2023-12-07T12:53:54;34.80;;;26.37;;
17482;SDS011;8858;52.308;20.994;2023-12-07T12:56:25;38.90;;;27.07;;
17482;SDS011;8858;52.308;20.994;2023-12-07T12:58:55;36.63;;;26.43;;
17482;SDS011;8858;52.308;20.994;2023-12-07T13:01:31;38.80;;;27.27;;
17482;SDS011;8858;52.308;20.994;2023-12-07T13:04:03;34.27;;;24.83;;
17482;SDS011;8858;52.308;20.994;2023-12-07T13:06:31;34.60;;;25.37;;
17482;SDS011;8858;52.308;20.994;2023-12-07T13:09:00;34.90;;;25.80;;
17482;SDS011;8858;52.308;20.994;2023-12-07T13:11:28;33.30;;;25.17;;
17482;SDS011;8858;52.308;20.994;2023-12-07T13:13:56;33.43;;;24.00;;
17482;SDS011;8858;52.308;20.994;2023-12-07T13:16:29;36.10;;;25.80;;
17482;SDS011;8858;52.308;20.994;2023-12-07T13:19:00;34.67;;;24.80;;
17482;SDS011;8858;52.308;20.994;2023-12-07T13:21:28;36.53;;;25.67;;
17482;SDS011;8858;52.308;20.994;2023-12-07T13:23:56;36.77;;;25.90;;
17482;SDS011;8858;52.308;20.994;2023-12-07T13:26:28;38.43;;;25.67;;
17482;SDS011;8858;52.308;20.994;2023-12-07T13:28:56;37.83;;;25.70;;
17482;SDS011;8858;52.308;20.994;2023-12-07T13:31:25;38.50;;;26.57;;
17482;SDS011;8858;52.308;20.994;2023-12-07T13:33:54;34.70;;;25.33;;
17482;SDS011;8858;52.308;20.994;2023-12-07T13:36:29;35.03;;;25.40;;
17482;SDS011;8858;52.308;20.994;2023-12-07T13:39:00;36.93;;;25.77;;
17482;SDS011;8858;52.308;20.994;2023-12-07T13:41:34;36.40;;;25.70;;
17482;SDS011;8858;52.308;20.994;2023-12-07T13:44:03;34.60;;;25.83;;
17482;SDS011;8858;52.308;20.994;2023-12-07T13:46:41;35.70;;;25.23;;
17482;SDS011;8858;52.308;20.994;2023-12-07T13:49:14;32.90;;;24.63;;
17482;SDS011;8858;52.308;20.994;2023-12-07T13:51:54;36.77;;;25.73;;
17482;SDS011;8858;52.308;20.994;2023-12-07T13:54:22;35.60;;;25.67;;
17482;SDS011;8858;52.308;20.994;2023-12-07T13:57:11;34.83;;;25.37;;
17482;SDS011;8858;52.308;20.994;2023-12-07T13:59:39;37.80;;;26.43;;
17482;SDS011;8858;52.308;20.994;2023-12-07T14:02:09;40.00;;;27.00;;
17482;SDS011;8858;52.308;20.994;2023-12-07T14:04:40;37.80;;;26.37;;
17482;SDS011;8858;52.308;20.994;2023-12-07T14:07:10;36.50;;;26.67;;
17482;SDS011;8858;52.308;20.994;2023-12-07T14:09:40;35.33;;;25.57;;
17482;SDS011;8858;52.308;20.994;2023-12-07T14:12:23;36.87;;;24.60;;
17482;SDS011;8858;52.308;20.994;2023-12-07T14:14:57;34.00;;;24.87;;
17482;SDS011;8858;52.308;20.994;2023-12-07T14:17:25;38.20;;;25.40;;
17482;SDS011;8858;52.308;20.994;2023-12-07T14:20:07;33.87;;;24.93;;
17482;SDS011;8858;52.308;20.994;2023-12-07T14:22:57;33.33;;;23.93;;
17482;SDS011;8858;52.308;20.994;2023-12-07T14:25:31;34.33;;;25.07;;
17482;SDS011;8858;52.308;20.994;2023-12-07T14:28:00;33.00;;;24.97;;
17482;SDS011;8858;52.308;20.994;2023-12-07T14:30:32;36.47;;;26.07;;
17482;SDS011;8858;52.308;20.994;2023-12-07T14:33:02;36.07;;;25.63;;
17482;SDS011;8858;52.308;20.994;2023-12-07T14:35:32;37.00;;;26.63;;
17482;SDS011;8858;52.308;20.994;2023-12-07T14:38:01;38.30;;;26.63;;
17482;SDS011;8858;52.308;20.994;2023-12-07T14:40:31;38.23;;;26.63;;
17482;SDS011;8858;52.308;20.994;2023-12-07T14:43:01;39.83;;;27.27;;
17482;SDS011;8858;52.308;20.994;2023-12-07T14:45:30;37.60;;;26.43;;
17482;SDS011;8858;52.308;20.994;2023-12-07T14:47:58;36.77;;;26.70;;